createdAt,value
2022-11-15T00:02:55.968Z,6.20
2022-11-15T00:08:02.585Z,6.00
2022-11-15T00:13:06.707Z,5.90
2022-11-15T00:18:18.067Z,5.80
2022-11-15T00:23:23.823Z,5.80
2022-11-15T00:28:25.910Z,5.90
2022-11-15T00:33:28.490Z,5.90
2022-11-15T00:38:41.168Z,6.10
2022-11-15T00:43:51.778Z,6.20
2022-11-15T00:49:12.571Z,6.30
2022-11-15T00:54:35.966Z,6.50
2022-11-15T00:59:49.875Z,6.70
2022-11-15T01:04:57.744Z,6.80
2022-11-15T01:10:33.006Z,6.80
2022-11-15T01:15:44.930Z,6.80
2022-11-15T01:20:53.043Z,6.70
2022-11-15T01:26:11.747Z,6.60
2022-11-15T01:31:21.098Z,6.60
2022-11-15T01:36:24.089Z,6.60
2022-11-15T01:41:38.355Z,6.70
2022-11-15T01:52:44.996Z,6.70
2022-11-15T02:03:54.118Z,6.80
2022-11-15T02:09:36.854Z,6.90
2022-11-15T02:14:59.728Z,7.00
2022-11-15T02:20:48.317Z,6.90
2022-11-15T02:26:09.038Z,7.00
2022-11-15T02:31:29.787Z,7.10
2022-11-15T02:37:27.454Z,7.10
2022-11-15T02:42:38.697Z,7.00
2022-11-15T02:48:08.043Z,7.00
2022-11-15T02:53:28.988Z,6.90
2022-11-15T02:59:06.463Z,6.80
2022-11-15T03:04:39.928Z,6.60
2022-11-15T03:10:28.224Z,6.60
2022-11-15T03:15:56.767Z,6.60
2022-11-15T03:21:14.813Z,6.70
2022-11-15T03:26:19.102Z,6.70
2022-11-15T03:31:25.741Z,6.80
2022-11-15T03:36:33.615Z,6.70
2022-11-15T03:41:41.435Z,6.70
2022-11-15T03:46:52.885Z,6.80
2022-11-15T03:51:58.638Z,6.80
2022-11-15T03:57:02.989Z,6.90
2022-11-15T04:02:16.076Z,7.00
2022-11-15T04:07:28.969Z,7.20
2022-11-15T04:12:36.455Z,7.20
2022-11-15T04:17:46.981Z,7.30
2022-11-15T04:23:09.447Z,7.30
2022-11-15T04:28:15.635Z,7.30
2022-11-15T04:33:37.234Z,7.40
2022-11-15T04:38:43.265Z,7.40
2022-11-15T04:43:45.115Z,7.40
2022-11-15T04:48:58.835Z,7.50
2022-11-15T04:54:02.650Z,7.50
2022-11-15T04:59:04.381Z,7.50
2022-11-15T05:04:06.203Z,7.50
2022-11-15T05:09:09.643Z,7.60
2022-11-15T05:14:11.550Z,7.70
2022-11-15T05:19:13.600Z,7.60
2022-11-15T05:24:17.058Z,7.70
2022-11-15T05:29:18.919Z,7.80
2022-11-15T05:34:20.828Z,7.80
2022-11-15T05:39:27.309Z,8.00
2022-11-15T05:44:29.596Z,8.10
2022-11-15T05:49:35.646Z,8.30
2022-11-15T05:54:39.531Z,8.40
2022-11-15T05:59:42.450Z,8.60
2022-11-15T06:04:44.281Z,8.70
2022-11-15T06:09:47.379Z,8.70
2022-11-15T06:14:49.227Z,8.60
2022-11-15T06:19:50.960Z,8.60
2022-11-15T06:24:54.099Z,8.50
2022-11-15T06:35:18.260Z,8.40
2022-11-15T06:40:21.459Z,8.50
2022-11-15T06:45:23.252Z,8.50
2022-11-15T06:50:25.224Z,8.50
2022-11-15T06:55:28.444Z,8.50
2022-11-15T07:00:30.485Z,8.40
2022-11-15T07:05:32.431Z,8.30
2022-11-15T07:10:35.750Z,8.20
2022-11-15T07:15:37.664Z,8.20
2022-11-15T07:20:39.403Z,8.30
2022-11-15T07:25:43.308Z,8.70
2022-11-15T07:30:45.627Z,9.20
2022-11-15T07:35:47.826Z,9.30
2022-11-15T07:40:57.523Z,9.30
2022-11-15T07:45:59.902Z,9.30
2022-11-15T07:51:02.041Z,9.40
2022-11-15T07:56:06.897Z,9.40
2022-11-15T08:01:10.998Z,9.60
2022-11-15T08:06:13.109Z,9.70
2022-11-15T08:11:16.601Z,9.80
2022-11-15T08:16:21.215Z,10.00
2022-11-15T08:21:23.678Z,10.10
2022-11-15T08:26:27.794Z,10.20
2022-11-15T08:31:29.928Z,10.30
2022-11-15T08:36:43.065Z,10.40
2022-11-15T08:41:52.500Z,10.40
2022-11-15T08:46:54.632Z,10.40
2022-11-15T08:51:59.230Z,10.50
2022-11-15T08:57:03.204Z,10.60
2022-11-15T09:02:05.615Z,10.70
2022-11-15T09:07:07.714Z,10.80
2022-11-15T09:12:11.649Z,11.00
2022-11-15T09:17:24.234Z,11.00
2022-11-15T09:22:32.162Z,11.10
2022-11-15T09:27:39.978Z,11.10
2022-11-15T09:32:51.355Z,11.10
2022-11-15T09:37:56.335Z,11.10
2022-11-15T09:43:12.118Z,11.10
2022-11-15T09:48:44.443Z,11.20
2022-11-15T09:59:45.622Z,11.40
2022-11-15T10:04:50.887Z,11.70
2022-11-15T10:09:55.467Z,11.90
2022-11-15T10:15:18.132Z,12.00
2022-11-15T10:20:22.857Z,12.00
2022-11-15T10:25:26.573Z,11.90
2022-11-15T10:30:35.835Z,11.90
2022-11-15T10:35:38.060Z,11.80
2022-11-15T10:40:43.173Z,11.70
2022-11-15T10:45:47.832Z,11.70
2022-11-15T10:50:57.186Z,11.70
2022-11-15T10:56:03.126Z,11.80
2022-11-15T11:01:16.683Z,11.70
2022-11-15T11:06:19.169Z,11.70
2022-11-15T11:11:21.180Z,11.70
2022-11-15T11:16:48.230Z,11.80
2022-11-15T11:22:02.570Z,11.90
2022-11-15T11:27:28.663Z,12.00
2022-11-15T11:32:58.666Z,12.10
2022-11-15T11:38:18.615Z,12.30
2022-11-15T11:43:28.084Z,12.50
2022-11-15T11:48:42.087Z,12.60
2022-11-15T11:53:50.663Z,12.60
2022-11-15T11:58:56.528Z,12.70
2022-11-15T12:04:05.867Z,12.80
2022-11-15T12:09:15.443Z,13.10
2022-11-15T12:14:37.181Z,13.10
2022-11-15T12:20:15.256Z,13.10
2022-11-15T12:26:03.400Z,13.30
2022-11-15T12:31:02.974Z,13.50
2022-11-15T12:36:40.492Z,13.50
2022-11-15T12:41:45.534Z,13.40
2022-11-15T12:47:03.982Z,13.30
2022-11-15T12:52:17.071Z,13.20
2022-11-15T12:57:46.174Z,13.00
2022-11-15T13:02:48.491Z,13.00
2022-11-15T13:07:58.713Z,12.80
2022-11-15T13:13:04.540Z,12.80
2022-11-15T13:18:46.798Z,12.90
2022-11-15T13:23:59.140Z,12.90
2022-11-15T13:29:02.558Z,12.90
2022-11-15T13:34:50.078Z,12.90
2022-11-15T13:39:45.494Z,12.90
2022-11-15T13:44:58.423Z,12.90
2022-11-15T13:50:01.294Z,12.90
2022-11-15T13:55:06.497Z,13.00
2022-11-15T14:00:32.909Z,13.00
2022-11-15T14:05:35.023Z,12.90
2022-11-15T14:10:38.241Z,12.90
2022-11-15T14:15:41.571Z,12.90
2022-11-15T14:20:43.423Z,12.80
2022-11-15T14:26:25.211Z,12.80
2022-11-15T14:31:28.621Z,12.80
2022-11-15T14:36:30.523Z,12.70
2022-11-15T14:53:07.798Z,12.70
2022-11-15T15:03:48.094Z,12.70
2022-11-15T15:09:39.160Z,12.70
2022-11-15T15:25:20.801Z,12.40
2022-11-15T15:30:33.931Z,12.40
2022-11-15T15:35:36.847Z,12.10
2022-11-15T15:40:49.658Z,12.10
2022-11-15T15:46:13.757Z,11.80
2022-11-15T15:56:56.061Z,11.60
2022-11-15T16:45:06.130Z,10.50
2022-11-15T16:50:24.015Z,10.40
2022-11-15T17:00:59.676Z,10.20
2022-11-15T17:06:11.603Z,10.00
2022-11-15T17:11:17.331Z,9.90
2022-11-15T17:16:20.764Z,9.90
2022-11-15T18:00:26.323Z,9.60
2022-11-15T18:16:42.483Z,9.80
2022-11-15T18:21:58.913Z,10.00
2022-11-15T19:48:20.830Z,9.30
2022-11-15T22:27:16.289Z,9.10
2022-11-15T22:37:56.055Z,9.20
2022-11-15T22:43:00.206Z,9.20
2022-11-15T22:48:11.149Z,9.20
2022-11-15T22:53:33.861Z,9.20
2022-11-15T22:58:38.409Z,9.10
2022-11-15T23:03:50.185Z,9.10
2022-11-15T23:08:57.467Z,9.10
2022-11-15T23:14:05.248Z,9.00
2022-11-15T23:19:13.158Z,9.00
2022-11-15T23:24:19.118Z,9.00
2022-11-15T23:29:42.163Z,9.00
2022-11-15T23:34:46.417Z,9.10
2022-11-15T23:39:51.338Z,9.00
2022-11-15T23:44:55.058Z,9.00
2022-11-15T23:49:57.060Z,9.00
2022-11-15T23:54:59.067Z,9.00
